Time;durP1;ratioP1;P1;durP2;ratioP2;P2;SDS_P1;SDS_P2;PMS_P1;PMS_P2;Temp;Humidity;BMP_temperature;BMP_pressure;BME280_temperature;BME280_humidity;BME280_pressure;Samples;Min_cycle;Max_cycle;Signal;HPM_P1;HPM_P2
2021/05/13 00:01:21;;;;;;;1.27;1.20;;;14.00;87.80;;;13.47;72.38;93755.69;5092963;28;20641;-80
2021/05/13 00:03:53;;;;;;;1.30;1.10;;;14.00;87.80;;;13.45;72.23;93759.38;5093510;28;20270;-80
2021/05/13 00:06:20;;;;;;;1.05;1.05;;;13.90;87.80;;;13.49;72.30;93758.88;5075037;28;20251;-81
2021/05/13 00:08:57;;;;;;;1.00;1.00;;;13.90;87.80;;;13.50;72.30;93748.13;5012836;28;20225;-80
2021/05/13 00:11:32;;;;;;;1.10;1.10;;;14.00;87.90;;;13.48;72.28;93754.66;4907955;28;20664;-79
2021/05/13 00:14:06;;;;;;;1.00;1.00;;;13.90;88.10;;;13.48;72.15;93749.41;4787321;29;20262;-79
2021/05/13 00:16:39;;;;;;;1.27;1.17;;;13.90;87.90;;;13.46;72.45;93746.97;5148639;27;20852;-79
2021/05/13 00:19:10;;;;;;;1.10;1.10;;;13.90;87.90;;;13.47;72.25;93750.44;5111628;27;20420;-80
2021/05/13 00:21:39;;;;;;;1.20;1.15;;;13.90;87.90;;;13.44;72.40;93749.84;5083057;28;20210;-79
2021/05/13 00:24:07;;;;;;;1.30;1.20;;;13.90;88.00;;;13.42;72.50;93738.75;5064518;28;20253;-79
2021/05/13 00:26:37;;;;;;;1.10;1.10;;;13.90;88.00;;;13.42;72.37;93741.38;5057131;28;20229;-79
2021/05/13 00:29:10;;;;;;;1.27;1.17;;;14.00;88.10;;;13.41;72.53;93739.00;5022163;28;20240;-79
2021/05/13 00:31:39;;;;;;;1.08;1.08;;;13.90;88.10;;;13.39;72.56;93730.53;5011494;28;20227;-80
2021/05/13 00:34:07;;;;;;;1.20;1.20;;;13.90;88.10;;;13.41;72.18;93734.53;4902161;28;20646;-79
2021/05/13 00:38:20;;;;;;;1.30;1.20;;;13.90;88.10;;;13.41;72.47;93737.16;5133527;27;20975;-80
2021/05/13 00:40:47;;;;;;;1.33;1.23;;;13.90;88.00;;;13.42;72.30;93735.34;5105119;28;20699;-80
2021/05/13 00:43:14;;;;;;;1.20;1.20;;;13.90;88.20;;;13.42;72.48;93720.31;5095228;28;20238;-79
2021/05/13 00:45:41;;;;;;;1.80;1.30;;;13.90;88.10;;;13.41;72.49;93731.09;5080513;28;20679;-80
2021/05/13 00:48:14;;;;;;;1.25;1.23;;;13.90;88.10;;;13.42;72.54;93733.50;5088586;28;20291;-80
2021/05/13 00:50:41;;;;;;;1.30;1.30;;;13.80;88.10;;;13.40;72.69;93718.97;5043050;28;20207;-80
2021/05/13 00:53:10;;;;;;;1.42;1.33;;;13.90;88.20;;;13.37;72.47;93720.22;4964741;28;20237;-80
2021/05/13 00:55:38;;;;;;;1.15;1.10;;;13.80;88.10;;;13.37;72.39;93724.69;4770662;29;20237;-80
2021/05/13 01:00:43;;;;;;;1.40;1.30;;;13.80;88.10;;;13.35;72.57;93710.94;5150045;27;20528;-80
2021/05/13 01:03:06;;;;;;;1.25;1.20;;;13.80;88.10;;;13.35;72.70;93711.75;5099940;28;20228;-79
2021/05/13 01:05:35;;;;;;;1.60;1.50;;;13.80;88.10;;;13.38;72.43;93713.16;5049920;28;20574;-79
2021/05/13 01:08:04;;;;;;;1.25;1.20;;;13.90;88.20;;;13.37;72.36;93707.03;5014016;28;20323;-80
2021/05/13 01:10:30;;;;;;;1.40;1.30;;;13.80;88.10;;;13.37;72.56;93704.41;4918632;28;20300;-80
2021/05/13 01:13:01;;;;;;;1.20;1.20;;;13.80;88.10;;;13.37;72.33;93704.41;4837818;29;20246;-79
2021/05/13 01:15:36;;;;;;;1.30;1.20;;;13.80;88.10;;;13.36;72.26;93702.03;4744161;29;20702;-79
2021/05/13 01:23:13;;;;;;;1.25;1.25;;;13.80;88.10;;;13.37;72.09;93695.72;5138160;27;21005;-80
2021/05/13 01:25:53;;;;;;;1.23;1.23;;;13.80;88.10;;;13.40;72.05;93697.88;5103091;28;20194;-80
2021/05/13 01:28:26;;;;;;;1.88;1.50;;;13.80;88.10;;;13.38;71.96;93692.88;5051524;27;20285;-79
2021/05/13 01:30:55;;;;;;;1.33;1.33;;;13.80;88.00;;;13.36;72.03;93697.53;5126338;28;20197;-80
2021/05/13 01:33:26;;;;;;;1.95;1.40;;;13.80;88.00;;;13.38;71.87;93694.72;5086029;28;20234;-80
2021/05/13 01:35:53;;;;;;;1.27;1.27;;;13.80;88.00;;;13.37;72.03;93683.34;5044857;28;20224;-78
2021/05/13 01:38:23;;;;;;;1.20;1.20;;;13.80;88.00;;;13.38;71.94;93687.59;4964757;28;20708;-80
2021/05/13 01:40:56;;;;;;;1.38;1.27;;;13.80;87.90;;;13.38;71.90;93682.34;4915601;28;20207;-80
2021/05/13 01:45:08;;;;;;;1.30;1.20;;;13.80;87.80;;;13.38;71.99;93682.34;5149061;27;20634;-78
2021/05/13 01:47:36;;;;;;;1.23;1.23;;;13.80;87.70;;;13.39;71.66;93669.97;5111187;27;20290;-79
2021/05/13 01:50:04;;;;;;;1.23;1.23;;;13.90;87.70;;;13.39;71.67;93672.59;5092811;28;20209;-80
2021/05/13 01:52:31;;;;;;;1.00;1.00;;;13.90;87.60;;;13.41;71.42;93675.78;5065330;28;20226;-80
2021/05/13 01:54:57;;;;;;;1.20;1.10;;;14.00;87.60;;;13.39;71.14;93669.97;5043623;28;20215;-79
2021/05/13 01:57:23;;;;;;;1.00;1.00;;;13.90;87.50;;;13.36;71.44;93665.16;4877824;28;20233;-79
2021/05/13 01:59:50;;;;;;;0.90;0.90;;;13.90;87.50;;;13.32;71.36;93662.19;4821022;29;20227;-79
2021/05/13 02:02:20;;;;;;;1.00;1.00;;;13.70;87.40;;;13.32;71.51;93656.94;4742589;29;20260;-80
2021/05/13 02:07:03;;;;;;;0.90;0.90;;;13.80;87.40;;;13.32;71.56;93661.38;5142359;27;20394;-79
2021/05/13 02:09:29;;;;;;;1.00;1.00;;;13.90;87.40;;;13.28;71.47;93646.06;5093807;27;20662;-79
2021/05/13 02:11:58;;;;;;;1.00;1.00;;;13.80;87.30;;;13.24;71.61;93647.59;5124880;27;20212;-80
2021/05/13 02:14:25;;;;;;;0.85;0.85;;;13.90;87.40;;;13.26;71.45;93647.34;5075368;28;20672;-80
2021/05/13 02:16:52;;;;;;;0.80;0.80;;;13.80;87.30;;;13.23;71.71;93653.09;5064662;28;20213;-81
2021/05/13 02:19:19;;;;;;;0.90;0.90;;;13.80;88.10;;;13.22;71.67;93647.03;5039691;28;20229;-79
2021/05/13 02:21:46;;;;;;;0.80;0.80;;;13.70;87.30;;;13.21;71.97;93644.66;4971174;28;20214;-80
2021/05/13 02:24:12;;;;;;;0.98;0.98;;;13.80;87.40;;;13.18;71.81;93645.13;4831814;29;20485;-80
2021/05/13 02:28:30;;;;;;;0.93;0.93;;;13.70;87.40;;;13.13;72.23;93633.47;5127440;27;20991;-79
2021/05/13 02:30:56;;;;;;;0.80;0.80;;;13.70;87.30;;;13.12;72.17;93631.88;5092417;28;20204;-78
2021/05/13 02:33:23;;;;;;;1.00;1.00;;;13.70;87.40;;;13.16;71.80;93624.31;5087629;28;20335;-80
2021/05/13 02:35:50;;;;;;;0.88;0.88;;;13.70;87.40;;;13.16;71.73;93631.38;5034236;28;20672;-80
2021/05/13 02:38:16;;;;;;;1.00;1.00;;;13.70;87.40;;;13.13;72.06;93622.94;5011171;28;20587;-79
2021/05/13 02:40:43;;;;;;;0.80;0.80;;;13.70;87.50;;;13.15;71.89;93622.69;4958791;28;20205;-80
2021/05/13 02:43:10;;;;;;;0.80;0.80;;;13.70;87.50;;;13.18;71.86;93616.16;4911552;29;20234;-80
2021/05/13 02:45:36;;;;;;;1.60;1.00;;;13.60;87.60;;;13.12;71.90;93608.19;4752757;29;20229;-79
2021/05/13 02:50:14;;;;;;;1.02;1.02;;;13.70;87.50;;;13.15;71.92;93609.53;5148263;27;20565;-79
2021/05/13 02:52:41;;;;;;;0.80;0.80;;;13.70;87.50;;;13.17;71.90;93611.91;5090910;28;20220;-79
2021/05/13 02:55:09;;;;;;;1.10;1.10;;;13.60;88.20;;;13.14;71.79;93607.94;5035343;28;20632;-79
2021/05/13 02:57:37;;;;;;;0.90;0.90;;;13.70;87.40;;;13.15;71.79;93614.81;5034359;28;20312;-79
2021/05/13 03:00:37;;;;;;;0.98;0.98;;;13.60;87.40;;;13.13;71.63;93614.25;5044856;28;20233;-80
2021/05/13 03:03:03;;;;;;;1.10;1.10;;;13.60;87.40;;;13.09;71.81;93610.50;4988983;28;20249;-80
2021/05/13 03:05:30;;;;;;;1.10;1.10;;;13.60;87.40;;;13.08;71.79;93608.91;4927714;28;20215;-80
2021/05/13 03:08:13;;;;;;;1.13;1.13;;;13.60;88.20;;;13.07;71.90;93615.19;4761618;29;20238;-79
2021/05/13 03:12:23;;;;;;;1.00;1.00;;;13.70;87.50;;;13.04;71.90;93615.69;5145608;27;20655;-80
2021/05/13 03:14:51;;;;;;;1.10;1.10;;;13.60;87.50;;;13.05;71.90;93612.00;5087713;28;20250;-80
2021/05/13 03:17:18;;;;;;;1.25;1.20;;;13.60;87.40;;;13.03;71.96;93617.50;5082214;28;20228;-79
2021/05/13 03:19:48;;;;;;;1.20;1.20;;;13.60;87.50;;;13.01;71.93;93613.53;5062352;28;20643;-80
2021/05/13 03:22:17;;;;;;;1.30;1.20;;;13.60;87.50;;;12.98;72.08;93617.44;5009270;28;20263;-79
2021/05/13 03:24:49;;;;;;;1.25;1.00;;;13.50;87.50;;;12.98;72.01;93606.91;4924975;28;20618;-79
2021/05/13 03:30:00;;;;;;;1.20;1.20;;;13.50;87.50;;;12.96;72.17;93608.97;4743921;29;20247;-79
2021/05/13 03:34:19;;;;;;;1.40;1.30;;;13.50;87.50;;;12.92;72.08;93611.28;5127920;27;21122;-79
2021/05/13 03:36:47;;;;;;;1.00;1.00;;;13.50;87.50;;;12.92;72.30;93602.59;5106039;28;20211;-79
2021/05/13 03:39:14;;;;;;;1.27;1.05;;;13.50;87.50;;;12.92;72.15;93599.97;5129047;27;20308;-80
2021/05/13 03:41:40;;;;;;;1.45;1.35;;;13.40;87.50;;;12.95;72.12;93602.09;5117149;27;20582;-79
2021/05/13 03:44:07;;;;;;;1.20;1.20;;;13.50;87.60;;;12.92;71.99;93592.84;5084236;28;20231;-79
2021/05/13 03:46:34;;;;;;;1.05;1.05;;;13.40;87.50;;;12.94;72.30;93598.69;5017618;28;20302;-80
2021/05/13 03:49:00;;;;;;;1.08;1.08;;;13.50;87.60;;;12.95;72.20;93600.28;5025914;28;20250;-79
2021/05/13 03:51:27;;;;;;;1.40;1.30;;;13.50;87.70;;;12.96;72.28;93599.25;4885052;28;20229;-80
2021/05/13 03:56:00;;;;;;;0.88;0.88;;;13.50;87.80;;;12.93;71.76;93602.34;5149078;27;20641;-78
2021/05/13 03:58:31;;;;;;;1.10;1.10;;;13.60;87.70;;;12.93;72.11;93596.31;5094507;27;20228;-79
2021/05/13 04:03:24;;;;;;;1.05;1.05;;;13.40;87.50;;;12.97;71.96;93589.50;5092496;28;20232;-79
2021/05/13 04:05:51;;;;;;;1.00;1.00;;;13.50;87.60;;;12.98;72.20;93591.09;5079323;28;20210;-80
2021/05/13 04:08:19;;;;;;;1.08;1.08;;;13.50;87.70;;;12.97;71.93;93585.06;5038242;28;20719;-79
2021/05/13 04:10:45;;;;;;;1.00;1.00;;;13.50;87.60;;;12.96;72.04;93588.72;5005509;28;20202;-79
2021/05/13 04:13:14;;;;;;;0.90;0.90;;;13.50;87.60;;;12.94;71.96;93588.16;4866359;29;20286;-79
2021/05/13 04:17:56;;;;;;;1.00;1.00;;;13.50;87.60;;;12.93;72.11;93588.41;5133554;27;20604;-79
2021/05/13 04:20:23;;;;;;;0.90;0.90;;;13.50;87.40;;;12.92;71.96;93595.47;5085780;28;20201;-79
2021/05/13 04:22:50;;;;;;;1.00;1.00;;;13.50;87.50;;;12.90;71.76;93587.06;5073071;28;20814;-80
2021/05/13 04:25:16;;;;;;;1.10;1.00;;;13.50;87.40;;;12.91;71.93;93593.09;5099161;28;20756;-80
2021/05/13 04:27:43;;;;;;;0.77;0.77;;;13.50;87.40;;;12.91;72.00;93593.09;5076578;28;20230;-79
2021/05/13 04:30:11;;;;;;;1.02;1.02;;;13.40;87.40;;;12.91;71.41;93585.22;5016447;28;20575;-79
2021/05/13 04:32:37;;;;;;;1.10;1.10;;;13.40;87.40;;;12.87;71.84;93581.47;4957679;28;20303;-80
2021/05/13 04:35:05;;;;;;;2.95;2.75;;;13.40;87.40;;;12.91;72.00;93593.09;4816945;29;20216;-79
2021/05/13 04:39:37;;;;;;;1.10;1.10;;;13.40;87.40;;;12.82;71.88;93588.22;5130769;27;21136;-79
2021/05/13 04:42:05;;;;;;;1.17;1.17;;;13.50;87.20;;;12.81;71.96;93586.63;5072658;28;20208;-80
2021/05/13 04:44:33;;;;;;;0.90;0.90;;;13.40;87.30;;;12.84;72.01;93574.84;5095067;28;20609;-79
2021/05/13 04:47:01;;;;;;;1.38;1.27;;;13.40;87.40;;;12.81;72.16;93583.22;5072343;28;20205;-79
2021/05/13 04:49:27;;;;;;;1.00;1.00;;;13.50;87.50;;;12.79;72.18;93583.44;5066668;28;20650;-79
2021/05/13 04:51:54;;;;;;;0.80;0.80;;;13.40;87.40;;;12.77;71.89;93588.16;5054384;28;20200;-79
2021/05/13 04:54:21;;;;;;;0.98;0.98;;;13.40;87.30;;;12.77;72.03;93598.66;4998764;28;20252;-80
2021/05/13 04:56:47;;;;;;;1.00;1.00;;;13.30;87.40;;;12.75;72.23;93587.56;4913794;28;20248;-80
2021/05/13 05:01:04;;;;;;;0.93;0.93;;;13.30;87.40;;;12.75;72.13;93594.69;5149714;27;20989;-79
2021/05/13 05:03:31;;;;;;;0.90;0.90;;;13.30;87.40;;;12.73;72.18;93592.31;5107960;28;20714;-80
2021/05/13 05:05:58;;;;;;;0.90;0.90;;;13.30;87.40;;;12.75;71.97;93586.78;5086435;28;20205;-80
2021/05/13 05:08:24;;;;;;;1.10;1.10;;;13.30;87.30;;;12.77;72.04;93592.63;5066011;28;20318;-80
2021/05/13 05:10:51;;;;;;;0.90;0.90;;;13.30;87.30;;;12.77;71.87;93595.25;4993204;28;20206;-80
2021/05/13 05:13:18;;;;;;;0.80;0.80;;;13.30;87.40;;;12.73;71.75;93583.59;4948377;28;20316;-80
2021/05/13 05:15:44;;;;;;;1.00;1.00;;;13.40;87.50;;;12.75;71.87;93584.16;4897103;29;20225;-81
2021/05/13 05:18:22;;;;;;;1.08;1.08;;;13.40;88.20;;;12.72;71.69;93582.00;4812105;29;20240;-80
2021/05/13 05:23:20;;;;;;;0.90;0.90;;;13.30;87.40;;;12.75;71.82;93584.16;5137545;27;20323;-80
2021/05/13 05:25:48;;;;;;;0.80;0.80;;;13.30;87.30;;;12.75;71.87;93587.56;5089386;28;20641;-80
2021/05/13 05:28:15;;;;;;;0.90;0.90;;;13.30;87.30;;;12.71;71.90;93583.84;5096440;28;20249;-80
2021/05/13 05:30:42;;;;;;;0.70;0.70;;;13.30;87.30;;;12.71;71.66;93583.06;5029196;28;20258;-80
2021/05/13 05:33:10;;;;;;;1.00;1.00;;;13.40;87.30;;;12.70;71.83;93581.44;5008099;28;20291;-80
2021/05/13 05:35:39;;;;;;;0.90;0.90;;;13.30;87.40;;;12.71;71.66;93589.09;4993945;28;20209;-80
2021/05/13 05:38:07;;;;;;;1.05;1.02;;;13.30;87.40;;;12.72;71.83;93589.88;4920553;28;20331;-79
2021/05/13 05:40:35;;;;;;;0.90;0.90;;;13.20;87.40;;;12.71;71.85;93589.09;4723412;29;20700;-80
2021/05/13 05:45:38;;;;;;;1.00;1.00;;;13.20;87.30;;;12.67;71.66;93584.53;5135046;27;20906;-80
2021/05/13 05:48:05;;;;;;;0.80;0.80;;;13.20;87.20;;;12.65;71.92;93588.22;5089576;28;20271;-79
2021/05/13 05:50:37;;;;;;;0.80;0.80;;;13.20;87.20;;;12.65;71.75;93590.06;5083042;28;20205;-80
2021/05/13 05:53:05;;;;;;;0.90;0.90;;;13.20;87.20;;;12.66;71.72;93581.13;5075053;28;20218;-79
2021/05/13 05:55:32;;;;;;;0.80;0.80;;;13.20;87.30;;;12.69;71.82;93591.16;5014576;28;20200;-79
2021/05/13 05:58:00;;;;;;;0.90;0.90;;;13.20;87.30;;;12.70;71.72;93592.75;4952407;28;20267;-80
2021/05/13 06:00:27;;;;;;;0.90;0.90;;;13.30;87.40;;;12.65;71.88;93585.56;4882528;29;20235;-78
2021/05/13 06:02:55;;;;;;;0.90;0.90;;;13.20;87.80;;;12.72;71.58;93593.34;4673853;30;20252;-79
2021/05/13 06:06:37;;;;;;;0.82;0.82;;;13.30;87.40;;;12.69;71.85;93598.28;5118819;27;20578;-80
2021/05/13 06:09:05;;;;;;;0.90;0.90;;;13.20;87.20;;;12.67;71.38;93601.16;5048425;28;20697;-79
2021/05/13 06:11:31;;;;;;;1.05;0.90;;;13.20;87.20;;;12.67;71.68;93598.50;5012745;28;20713;-80
2021/05/13 06:13:58;;;;;;;0.90;0.90;;;13.20;87.30;;;12.68;71.73;93597.44;5029926;28;20702;-80
2021/05/13 06:16:25;;;;;;;0.70;0.70;;;13.20;87.30;;;12.71;71.79;93598.84;4964492;28;20660;-81
2021/05/13 06:18:54;;;;;;;0.70;0.70;;;13.20;87.40;;;12.68;71.73;93605.34;4926996;28;20232;-80
2021/05/13 06:21:22;;;;;;;0.60;0.60;;;13.20;87.40;;;12.68;71.57;93599.31;4810553;29;20234;-80
2021/05/13 06:23:54;;;;;;;0.50;0.50;;;13.20;87.30;;;12.65;71.76;93605.84;4763215;29;20324;-81
2021/05/13 06:28:16;;;;;;;0.80;0.80;;;13.20;87.30;;;12.60;71.99;93601.28;5136914;27;20691;-79
2021/05/13 06:30:45;;;;;;;0.70;0.70;;;13.30;87.20;;;12.62;71.85;93603.66;5086810;28;20672;-79
2021/05/13 06:33:12;;;;;;;1.02;0.88;;;13.20;87.20;;;12.60;71.76;93598.66;5094865;28;20226;-79
2021/05/13 06:35:40;;;;;;;0.60;0.60;;;13.20;87.40;;;12.64;71.81;93604.22;5049879;28;20253;-81
2021/05/13 06:38:07;;;;;;;0.90;0.90;;;13.20;87.50;;;12.64;71.63;93607.66;4964615;28;20322;-79
2021/05/13 06:40:34;;;;;;;0.90;0.90;;;13.20;87.40;;;12.63;71.75;93597.38;4953839;28;20239;-80
2021/05/13 06:43:00;;;;;;;0.80;0.80;;;13.20;87.40;;;12.60;71.52;93609.16;4831936;29;20318;-80
2021/05/13 06:45:28;;;;;;;0.90;0.90;;;13.20;87.30;;;12.57;71.62;93608.84;4778081;29;20251;-80
2021/05/13 06:49:58;;;;;;;1.08;0.80;;;13.10;87.20;;;12.48;71.92;93608.44;5140087;27;21162;-78
2021/05/13 06:52:24;;;;;;;0.85;0.85;;;13.10;87.40;;;12.45;72.25;93608.88;5095793;28;20220;-79
2021/05/13 06:54:51;;;;;;;0.90;0.90;;;13.10;87.50;;;12.43;72.35;93597.81;5088131;28;20313;-79
2021/05/13 06:57:17;;;;;;;0.90;0.90;;;13.00;87.70;;;12.41;72.15;93592.78;5081477;28;20228;-80
2021/05/13 06:59:45;;;;;;;0.80;0.80;;;13.00;87.90;;;12.37;72.16;93602.19;5050950;28;20554;-78
2021/05/13 07:02:12;;;;;;;1.85;1.02;;;13.00;88.10;;;12.37;72.57;93596.94;4925982;28;20694;-78
2021/05/13 07:04:40;;;;;;;0.80;0.80;;;13.00;88.70;;;12.35;72.62;93598.97;4921965;28;20617;-78
2021/05/13 07:07:07;;;;;;;2.00;0.88;;;13.00;88.80;;;12.35;72.76;93600.81;4797108;29;22167;-78
2021/05/13 07:11:54;;;;;;;0.90;0.90;;;12.90;89.20;;;12.33;72.63;93607.13;5150205;27;20553;-78
2021/05/13 07:14:21;;;;;;;0.90;0.90;;;12.80;90.00;;;12.30;72.78;93599.72;5091247;28;20217;-80
2021/05/13 07:16:49;;;;;;;0.85;0.80;;;12.90;90.20;;;12.28;72.84;93599.13;5068719;28;20268;-80
2021/05/13 07:19:18;;;;;;;0.90;0.90;;;12.80;90.40;;;12.26;73.05;93593.31;5026878;28;20709;-80
2021/05/13 07:21:45;;;;;;;1.95;1.00;;;12.80;90.60;;;12.28;73.02;93593.06;4947625;28;20207;-80
2021/05/13 07:24:11;;;;;;;1.05;1.05;;;12.90;90.70;;;12.28;73.08;93599.13;4873769;29;20229;-80
2021/05/13 07:26:38;;;;;;;1.08;1.02;;;12.80;90.80;;;12.24;73.11;93597.22;4791853;29;20217;-78
2021/05/13 07:29:05;;;;;;;1.00;1.00;;;12.80;90.80;;;12.22;73.12;93596.63;4630851;30;20390;-79
2021/05/13 07:33:21;;;;;;;0.88;0.88;;;12.70;90.80;;;12.11;73.28;93593.81;5136373;27;20576;-79
2021/05/13 07:35:47;;;;;;;0.77;0.77;;;12.70;90.90;;;12.12;72.98;93599.88;5088374;28;20202;-78
2021/05/13 07:38:14;;;;;;;0.80;0.80;;;12.70;90.90;;;12.10;73.41;93589.59;5072217;28;20642;-79
2021/05/13 07:40:41;;;;;;;0.90;0.90;;;12.70;90.90;;;12.09;73.57;93595.88;5041655;28;20203;-79
2021/05/13 07:43:08;;;;;;;0.95;0.95;;;12.70;90.90;;;12.06;73.41;93590.28;4958130;28;20238;-78
2021/05/13 07:45:40;;;;;;;4.00;0.90;;;12.60;91.10;;;12.07;73.55;93595.34;4845688;29;20298;-78
2021/05/13 07:48:08;;;;;;;5.93;1.08;;;12.60;91.20;;;12.07;73.88;93589.25;4785343;29;20787;-78
2021/05/13 07:50:35;;;;;;;0.93;0.93;;;12.50;91.40;;;12.00;73.65;93590.19;4638930;30;20225;-77
2021/05/13 07:54:32;;;;;;;1.55;1.15;;;12.50;91.30;;;11.98;73.63;93584.38;5150443;27;20634;-77
2021/05/13 07:56:58;;;;;;;3.40;1.00;;;12.50;91.80;;;11.96;73.79;93575.09;5111092;27;20203;-76
2021/05/13 07:59:25;;;;;;;1.35;0.90;;;12.50;91.70;;;11.94;73.81;93580.59;5069004;28;20430;-78
2021/05/13 08:01:52;;;;;;;1.95;1.05;;;12.40;91.80;;;11.96;74.21;93567.22;5039629;28;20262;-78
2021/05/13 08:04:19;;;;;;;1.00;1.00;;;12.50;91.80;;;11.96;73.70;93561.97;5059243;28;20698;-77
2021/05/13 08:06:45;;;;;;;1.30;1.20;;;12.40;91.90;;;11.90;74.01;93544.50;5041276;28;20212;-79
2021/05/13 08:09:12;;;;;;;1.10;1.10;;;12.40;91.90;;;11.91;73.96;93549.50;4986167;28;20235;-80
2021/05/13 08:11:39;;;;;;;1.63;0.90;;;12.40;91.80;;;11.90;74.13;93550.56;4852126;28;20359;-79
2021/05/13 08:16:13;;;;;;;1.10;1.10;;;12.40;92.00;;;11.87;74.10;93558.91;5150040;27;20554;-78
2021/05/13 08:18:40;;;;;;;1.20;1.10;;;12.40;92.00;;;11.87;74.19;93566.78;5116898;28;20308;-79
2021/05/13 08:21:07;;;;;;;1.65;1.30;;;12.40;92.00;;;11.89;74.40;93564.72;5083334;28;20214;-80
2021/05/13 08:23:34;;;;;;;1.30;1.20;;;12.40;92.20;;;11.91;74.49;93569.75;5036825;28;20238;-79
2021/05/13 08:26:00;;;;;;;3.67;1.40;;;12.30;92.30;;;11.92;74.33;93563.47;5003410;28;20220;-80
2021/05/13 08:28:27;;;;;;;1.60;1.50;;;12.30;92.30;;;11.92;74.48;93571.34;4913407;29;20227;-78
2021/05/13 08:30:53;;;;;;;1.40;1.20;;;12.40;92.40;;;11.98;74.58;93578.31;4866924;29;20225;-79
2021/05/13 08:33:20;;;;;;;1.30;1.20;;;12.40;92.50;;;12.03;74.70;93586.31;4822060;29;20325;-78
2021/05/13 08:38:09;;;;;;;1.55;1.23;;;12.40;92.50;;;12.11;74.58;93593.81;5122718;27;20667;-78
2021/05/13 08:40:36;;;;;;;1.48;1.02;;;12.50;92.60;;;12.12;74.58;93599.88;5087635;28;20205;-79
2021/05/13 08:43:03;;;;;;;1.13;1.13;;;12.50;92.50;;;12.14;74.67;93605.69;5087369;28;20229;-80
2021/05/13 08:45:34;;;;;;;1.20;1.20;;;12.50;92.60;;;12.16;74.38;93598.38;5080678;27;20548;-79
2021/05/13 08:48:01;;;;;;;1.08;1.08;;;12.50;92.50;;;12.17;74.26;93600.00;5095794;28;20218;-80
2021/05/13 08:50:28;;;;;;;1.20;1.20;;;12.50;92.50;;;12.19;74.38;93603.16;5007273;28;20241;-81
2021/05/13 08:52:56;;;;;;;1.10;1.10;;;12.50;92.60;;;12.21;74.24;93610.84;4909901;28;20233;-80
2021/05/13 08:55:23;;;;;;;1.40;1.30;;;12.60;92.80;;;12.18;74.52;93598.94;4694009;30;20213;-79
2021/05/13 09:00:21;;;;;;;1.48;1.30;;;12.60;92.60;;;12.22;74.22;93604.53;5150301;27;20631;-81
2021/05/13 09:02:51;;;;;;;1.70;1.60;;;12.60;92.50;;;12.23;74.22;93603.50;5128956;27;20235;-79
2021/05/13 09:05:18;;;;;;;1.75;1.23;;;12.60;92.80;;;12.25;74.50;93599.59;5092875;28;20208;-79
2021/05/13 09:07:45;;;;;;;1.17;1.13;;;12.60;92.70;;;12.26;74.39;93600.41;5079070;28;20257;-79
2021/05/13 09:10:16;;;;;;;1.33;1.30;;;12.60;92.70;;;12.27;74.50;93588.88;5031647;28;20687;-80
2021/05/13 09:12:52;;;;;;;1.10;1.10;;;12.60;92.70;;;12.26;74.65;93593.31;4966748;28;20283;-80
2021/05/13 09:15:22;;;;;;;1.10;1.00;;;12.60;92.70;;;12.30;74.76;93581.31;4928631;28;20208;-78
2021/05/13 09:17:52;;;;;;;1.65;1.50;;;12.70;92.80;;;12.36;74.81;93600.59;4719070;29;20790;-79
2021/05/13 09:22:09;;;;;;;1.30;1.30;;;12.70;92.80;;;12.38;74.39;93598.53;5150229;27;20638;-79
2021/05/13 09:24:51;;;;;;;1.10;1.10;;;12.70;92.80;;;12.38;74.52;93598.53;5067024;28;20578;-80
2021/05/13 09:27:28;;;;;;;1.45;1.35;;;12.70;92.80;;;12.39;74.60;93601.94;5050485;28;20219;-79
2021/05/13 09:30:05;;;;;;;1.30;1.20;;;12.80;92.90;;;12.40;74.45;93593.84;4999916;28;20226;-79
2021/05/13 09:32:31;;;;;;;1.10;1.10;;;12.80;92.80;;;12.40;74.37;93600.91;5017400;28;20279;-80
2021/05/13 09:35:18;;;;;;;1.23;1.23;;;12.90;92.90;;;12.36;74.08;93597.16;5060075;28;20209;-79
2021/05/13 09:37:52;;;;;;;1.20;1.20;;;12.80;92.60;;;12.33;74.15;93585.28;4898588;28;20283;-78
2021/05/13 09:43:21;;;;;;;1.60;1.50;;;12.80;92.70;;;12.31;74.59;93575.00;5126846;27;20551;-79
2021/05/13 09:45:56;;;;;;;1.35;1.25;;;12.70;92.90;;;12.39;74.93;93580.91;5071056;28;20210;-77
2021/05/13 09:48:41;;;;;;;1.23;1.20;;;12.80;93.00;;;12.44;74.60;93584.44;5051449;28;20291;-77
2021/05/13 09:51:22;;;;;;;1.40;1.40;;;12.70;93.00;;;12.45;74.71;93572.06;5055522;28;20241;-77
2021/05/13 09:54:14;;;;;;;1.52;1.42;;;12.80;93.00;;;12.49;74.61;93575.84;5026158;28;20642;-82
2021/05/13 09:56:54;;;;;;;1.67;1.52;;;12.80;93.10;;;12.43;74.08;93569.69;4973270;28;20236;-78
2021/05/13 09:59:38;;;;;;;1.38;1.30;;;12.80;92.90;;;12.45;74.47;93579.97;4932048;28;20229;-79
2021/05/13 10:04:42;;;;;;;1.40;1.30;;;12.80;92.90;;;12.45;74.28;93585.22;5148660;27;20642;-78
2021/05/13 10:07:09;;;;;;;1.67;1.40;;;12.90;92.90;;;12.44;74.32;93586.28;5077280;28;20200;-79
2021/05/13 10:09:35;;;;;;;1.40;1.40;;;12.80;92.90;;;12.37;73.96;93578.53;5063898;28;20267;-78
2021/05/13 10:12:22;;;;;;;1.30;1.30;;;12.80;92.80;;;12.37;74.37;93585.63;5051059;28;20619;-79
2021/05/13 10:14:51;;;;;;;1.58;1.48;;;12.80;92.90;;;12.31;74.34;93575.00;5036961;28;20200;-79
2021/05/13 10:17:19;;;;;;;1.60;1.50;;;12.80;92.90;;;12.31;74.63;93571.56;5028302;28;20248;-79
2021/05/13 10:19:58;;;;;;;1.60;1.50;;;12.80;92.90;;;12.29;74.50;93577.06;4850125;29;20250;-81
2021/05/13 10:22:36;;;;;;;1.50;1.40;;;12.80;92.90;;;12.30;74.72;93569.97;5124121;27;20580;-77
2021/05/13 10:25:33;;;;;;;1.25;1.25;;;12.70;93.00;;;12.36;74.73;93586.66;5079594;28;20201;-78
2021/05/13 10:28:03;;;;;;;1.40;1.30;;;12.80;93.00;;;12.36;74.98;93578.75;5024017;28;20326;-78
2021/05/13 10:30:36;;;;;;;1.60;1.50;;;12.70;93.10;;;12.41;75.02;93577.00;4992792;28;20216;-78
2021/05/13 10:33:20;;;;;;;1.58;1.48;;;12.70;93.10;;;12.43;74.86;93587.31;4940884;28;20232;-77
2021/05/13 10:36:06;;;;;;;1.77;1.40;;;12.70;93.00;;;12.42;74.71;93599.63;4845922;29;20249;-79
2021/05/13 10:38:46;;;;;;;1.60;1.50;;;12.80;93.10;;;12.43;74.88;93590.72;4711057;30;20242;-79
2021/05/13 10:44:11;;;;;;;2.08;1.45;;;12.80;93.10;;;12.46;75.38;93578.94;5126321;27;21108;-77
2021/05/13 10:46:51;;;;;;;1.60;1.50;;;12.80;93.20;;;12.49;75.31;93586.34;5064988;28;20667;-78
2021/05/13 10:49:25;;;;;;;1.70;1.60;;;12.80;93.20;;;12.48;75.21;93584.75;5039157;28;20277;-77
2021/05/13 10:52:28;;;;;;;1.10;1.10;;;12.80;93.20;;;12.53;75.10;93584.06;4954042;28;20219;-78
2021/05/13 10:54:55;;;;;;;1.50;1.50;;;12.90;93.20;;;12.57;75.38;93587.81;4891590;29;20245;-78
2021/05/13 10:57:21;;;;;;;1.50;1.40;;;12.90;93.30;;;12.59;75.51;93588.38;4837582;29;20222;-78
2021/05/13 11:00:21;;;;;;;1.20;1.20;;;12.90;93.40;;;12.60;75.31;93585.50;4737153;30;20280;-79
2021/05/13 11:04:45;;;;;;;1.50;1.40;;;12.90;93.40;;;12.69;75.51;93583.28;5150281;27;20633;-76
2021/05/13 11:07:14;;;;;;;2.17;1.50;;;12.90;93.50;;;12.71;75.11;93583.84;5126180;27;20274;-77
2021/05/13 11:09:46;;;;;;;1.77;1.30;;;13.00;93.30;;;12.71;74.94;93577.78;5097360;28;20208;-78
2021/05/13 11:12:23;;;;;;;1.52;1.35;;;13.00;93.30;;;12.71;74.91;93589.09;5088352;28;20687;-77
2021/05/13 11:20:23;;;;;;;1.40;1.30;;;13.00;93.10;;;12.62;74.68;93587.88;4931230;28;20226;-79
2021/05/13 11:23:48;;;;;;;1.20;1.20;;;13.00;93.10;;;12.55;74.79;93598.56;5134022;27;20995;-78
2021/05/13 11:26:15;;;;;;;1.20;1.20;;;13.00;93.10;;;12.53;74.94;93582.22;5079107;28;20561;-79
2021/05/13 11:28:46;;;;;;;1.83;1.73;;;13.00;93.20;;;12.54;74.93;93585.66;5073706;28;20254;-78
2021/05/13 11:31:20;;;;;;;1.40;1.30;;;12.90;93.10;;;12.52;74.76;93595.59;5028371;28;20213;-78
2021/05/13 11:33:58;;;;;;;1.30;1.30;;;12.90;93.10;;;12.51;74.99;93586.13;4950890;28;20285;-77
2021/05/13 11:36:37;;;;;;;1.48;1.38;;;12.90;93.10;;;12.51;75.24;93601.91;4878962;29;20235;-77
2021/05/13 11:39:16;;;;;;;1.50;1.40;;;12.90;93.20;;;12.54;75.60;93599.59;4753283;29;20237;-77
2021/05/13 11:42:08;;;;;;;1.20;1.20;;;12.90;93.30;;;12.52;75.19;93595.59;5146219;27;20528;-78
2021/05/13 11:44:34;;;;;;;1.20;1.20;;;12.90;93.30;;;12.51;75.55;93592.16;5067733;28;20198;-77
2021/05/13 11:47:01;;;;;;;1.30;1.20;;;12.90;93.40;;;12.56;75.65;93594.09;5067101;28;21593;-78